Time;durP1;ratioP1;P1;durP2;ratioP2;P2;SDS_P1;SDS_P2;PMS_P1;PMS_P2;Temp;Humidity;BMP_temperature;BMP_pressure;BME280_temperature;BME280_humidity;BME280_pressure;Samples;Min_cycle;Max_cycle;Signal;HPM_P1;HPM_P2
2023/12/21 00:01:55;;;;;;;22.80;21.83;;;2.70;99.90;;;;;;5068142;28;20220;-77
2023/12/21 00:04:21;;;;;;;9.70;8.77;;;2.80;99.90;;;;;;5067894;28;20037;-77
2023/12/21 00:06:47;;;;;;;12.68;11.50;;;2.80;99.90;;;;;;5064174;28;20032;-77
2023/12/21 00:09:13;;;;;;;2.03;1.88;;;2.80;99.90;;;;;;5064967;28;20213;-77
2023/12/21 00:11:39;;;;;;;0.73;0.73;;;2.80;99.90;;;;;;5064968;28;20027;-77
2023/12/21 00:14:07;;;;;;;6.50;6.15;;;2.80;99.90;;;;;;5073326;28;20658;-76
2023/12/21 00:16:33;;;;;;;1.42;1.38;;;2.80;99.90;;;;;;5072733;28;20023;-77
2023/12/21 00:18:58;;;;;;;6.82;6.47;;;2.80;99.90;;;;;;5068408;28;20084;-77
2023/12/21 00:21:27;;;;;;;27.05;25.17;;;2.80;99.90;;;;;;5080204;28;20043;-77
2023/12/21 00:23:52;;;;;;;23.77;21.70;;;2.80;99.90;;;;;;5066306;28;20027;-77
2023/12/21 00:26:18;;;;;;;17.48;16.55;;;2.80;99.90;;;;;;5068171;28;20020;-77
2023/12/21 00:28:46;;;;;;;1.40;1.35;;;2.80;99.90;;;;;;5067174;28;20093;-77
2023/12/21 00:31:14;;;;;;;17.42;16.52;;;2.70;99.90;;;;;;5068055;28;20024;-77
2023/12/21 00:33:40;;;;;;;3.03;2.92;;;2.70;99.90;;;;;;5068742;28;20029;-77
2023/12/21 00:36:07;;;;;;;2.35;2.25;;;2.70;99.90;;;;;;5071189;28;20724;-77
2023/12/21 00:38:33;;;;;;;0.90;0.90;;;2.80;99.90;;;;;;5086708;28;20677;-77
2023/12/21 00:41:08;;;;;;;15.93;15.18;;;2.80;99.90;;;;;;5089741;28;20021;-77
2023/12/21 00:43:34;;;;;;;9.43;9.05;;;2.80;99.90;;;;;;5088569;28;20201;-77
2023/12/21 00:46:00;;;;;;;4.55;4.35;;;2.70;99.90;;;;;;5089131;28;20013;-77
2023/12/21 00:48:27;;;;;;;5.60;5.22;;;2.70;99.90;;;;;;5087843;28;20449;-77
2023/12/21 00:50:53;;;;;;;0.28;0.28;;;2.70;99.90;;;;;;5086324;28;20068;-77
2023/12/21 00:53:19;;;;;;;2.70;2.60;;;2.70;99.90;;;;;;5087067;28;20044;-77
2023/12/21 00:55:46;;;;;;;27.35;26.05;;;2.80;99.90;;;;;;5091928;28;20032;-77
2023/12/21 00:58:12;;;;;;;26.17;17.15;;;2.80;99.90;;;;;;5090136;28;20048;-77
2023/12/21 01:00:37;;;;;;;39.10;36.95;;;2.80;99.90;;;;;;5089840;28;20055;-77
2023/12/21 01:03:14;;;;;;;24.05;22.52;;;2.90;99.90;;;;;;5102924;28;20016;-77
2023/12/21 01:05:40;;;;;;;31.70;15.48;;;2.90;99.90;;;;;;5102226;28;20040;-77
2023/12/21 01:08:07;;;;;;;39.30;21.33;;;2.90;99.90;;;;;;5105896;28;20603;-77
2023/12/21 01:10:38;;;;;;;10.15;9.73;;;2.90;99.90;;;;;;5099373;28;20008;-76
2023/12/21 01:13:15;;;;;;;12.38;11.50;;;2.80;99.90;;;;;;5098564;28;20097;-77
2023/12/21 01:15:42;;;;;;;37.65;35.47;;;2.80;99.90;;;;;;5103491;28;20028;-77
2023/12/21 01:18:14;;;;;;;3.20;3.10;;;2.80;99.90;;;;;;5103472;28;20048;-77
2023/12/21 01:20:44;;;;;;;35.88;33.22;;;2.80;99.90;;;;;;5093957;28;20064;-77
2023/12/21 01:23:16;;;;;;;51.65;48.30;;;2.90;99.90;;;;;;5096471;28;20028;-76
2023/12/21 01:25:42;;;;;;;8.30;7.88;;;2.90;99.90;;;;;;5096841;28;20079;-78
2023/12/21 01:28:10;;;;;;;6.72;6.03;;;3.00;99.90;;;;;;5101926;28;20825;-77
2023/12/21 01:30:39;;;;;;;18.92;7.45;;;2.90;99.90;;;;;;5066658;28;20044;-77
2023/12/21 01:33:07;;;;;;;21.45;19.75;;;3.00;99.90;;;;;;5100529;28;20036;-76
2023/12/21 01:35:36;;;;;;;3.17;2.97;;;2.90;99.90;;;;;;5097506;28;20048;-77
2023/12/21 01:38:07;;;;;;;33.67;17.35;;;3.00;99.90;;;;;;5080345;28;20028;-77
2023/12/21 01:40:34;;;;;;;2.08;1.98;;;2.90;99.90;;;;;;5077870;28;20016;-77
2023/12/21 01:43:01;;;;;;;25.52;23.67;;;2.90;99.90;;;;;;5101422;28;20150;-77
2023/12/21 01:45:33;;;;;;;8.30;7.93;;;3.20;99.90;;;;;;5103277;28;20057;-78
2023/12/21 01:48:02;;;;;;;26.52;25.00;;;3.00;99.90;;;;;;5101738;28;20064;-77
2023/12/21 01:50:37;;;;;;;11.27;10.80;;;3.00;99.90;;;;;;5103123;28;20027;-77
2023/12/21 01:53:06;;;;;;;25.45;23.90;;;3.00;99.90;;;;;;5095766;28;20425;-77
2023/12/21 01:55:33;;;;;;;13.80;12.98;;;1.90;99.90;;;;;;5083817;28;20065;-77
2023/12/21 01:57:59;;;;;;;31.77;20.45;;;3.00;99.90;;;;;;5100374;28;20036;-77
2023/12/21 02:00:37;;;;;;;12.52;11.95;;;3.10;99.90;;;;;;5101524;28;20108;-77
2023/12/21 02:03:04;;;;;;;20.13;18.95;;;3.10;99.90;;;;;;5096797;28;20082;-76
2023/12/21 02:05:30;;;;;;;23.05;21.83;;;3.10;99.90;;;;;;5097748;28;20055;-77
2023/12/21 02:07:56;;;;;;;5.30;4.85;;;3.10;99.90;;;;;;5099642;28;20024;-77
2023/12/21 02:12:58;;;;;;;0.38;0.38;;;3.00;99.90;;;;;;5076568;28;20048;-77
2023/12/21 02:15:23;;;;;;;0.57;0.57;;;3.00;99.90;;;;;;5078436;28;20082;-77
2023/12/21 02:17:51;;;;;;;30.85;28.13;;;3.00;99.90;;;;;;5061313;28;20036;-77
2023/12/21 02:20:23;;;;;;;31.05;28.83;;;2.90;99.90;;;;;;5079562;28;20076;-77
2023/12/21 02:22:53;;;;;;;34.63;32.25;;;2.90;99.90;;;;;;5079635;28;20020;-77
2023/12/21 02:25:20;;;;;;;13.07;10.88;;;2.90;99.90;;;;;;5080122;28;20099;-77
2023/12/21 02:27:52;;;;;;;19.17;18.00;;;2.50;99.90;;;;;;5079050;28;20032;-77
2023/12/21 02:30:22;;;;;;;;;;;3.00;99.90;;;;;;5078754;28;20084;-77
2023/12/21 02:32:51;;;;;;;2.88;2.78;;;3.00;99.90;;;;;;5083241;28;20373;-78
2023/12/21 02:35:17;;;;;;;0.80;0.80;;;3.00;99.90;;;;;;5077888;28;20052;-77
2023/12/21 02:37:46;;;;;;;3.88;3.28;;;3.00;99.90;;;;;;5062551;28;20059;-77
2023/12/21 02:40:12;;;;;;;3.60;3.50;;;3.00;99.90;;;;;;5060494;28;20043;-77
2023/12/21 02:42:42;;;;;;;32.85;31.25;;;3.00;99.90;;;;;;5063074;28;20024;-77
2023/12/21 02:45:15;;;;;;;6.60;6.22;;;3.00;99.90;;;;;;5058506;28;20047;-77
2023/12/21 02:47:41;;;;;;;7.30;6.70;;;3.00;99.90;;;;;;5077200;28;20028;-77
2023/12/21 02:50:07;;;;;;;0.20;0.20;;;3.00;99.90;;;;;;5060946;28;20021;-77
2023/12/21 02:52:33;;;;;;;13.30;11.93;;;3.00;99.90;;;;;;5059356;28;20032;-77
2023/12/21 02:55:00;;;;;;;3.72;3.53;;;2.90;99.90;;;;;;5043587;28;20037;-77
2023/12/21 02:57:25;;;;;;;8.10;7.75;;;2.90;99.90;;;;;;5044297;28;20037;-77
2023/12/21 02:59:53;;;;;;;19.95;19.02;;;3.00;99.90;;;;;;5041524;28;20036;-75
2023/12/21 03:02:19;;;;;;;6.65;6.35;;;3.00;99.90;;;;;;5056268;28;20009;-77
2023/12/21 03:04:44;;;;;;;10.70;10.25;;;3.00;99.90;;;;;;5060565;28;20014;-77
2023/12/21 03:07:10;;;;;;;39.00;35.25;;;2.90;99.90;;;;;;5058733;28;20021;-76
2023/12/21 03:09:36;;;;;;;18.77;17.17;;;2.90;99.90;;;;;;5058056;28;20032;-77
2023/12/21 03:12:07;;;;;;;12.38;11.27;;;3.00;99.90;;;;;;5058815;28;20104;-77
2023/12/21 03:14:35;;;;;;;0.43;0.43;;;2.90;99.90;;;;;;5058479;28;20041;-77
2023/12/21 03:17:03;;;;;;;18.25;17.17;;;2.90;99.90;;;;;;5039923;28;20021;-76
2023/12/21 03:19:29;;;;;;;16.80;11.07;;;2.90;99.90;;;;;;5057893;28;20063;-76
2023/12/21 03:21:56;;;;;;;1.40;1.35;;;2.90;99.90;;;;;;5041928;28;20025;-77
2023/12/21 03:24:40;;;;;;;8.23;7.43;;;3.00;99.90;;;;;;5059228;28;20025;-77
2023/12/21 03:27:05;;;;;;;49.47;46.15;;;3.00;99.90;;;;;;5059047;28;20017;-76
2023/12/21 03:29:40;;;;;;;5.50;5.25;;;2.90;99.90;;;;;;5060380;28;20036;-76
2023/12/21 03:32:07;;;;;;;13.30;12.75;;;2.80;99.90;;;;;;5043058;28;20021;-76
2023/12/21 03:34:33;;;;;;;0.40;0.40;;;2.90;99.90;;;;;;5057549;28;20021;-77
2023/12/21 03:36:59;;;;;;;4.88;4.68;;;2.90;99.90;;;;;;5060396;28;20021;-77
2023/12/21 03:39:31;;;;;;;2.28;2.17;;;2.80;99.90;;;;;;5078316;28;20705;-77
2023/12/21 03:42:08;;;;;;;30.60;29.10;;;2.80;99.90;;;;;;5074307;28;20606;-77
2023/12/21 03:44:38;;;;;;;46.03;41.95;;;2.90;99.90;;;;;;5056372;28;20111;-77
2023/12/21 03:47:05;;;;;;;1.30;1.25;;;2.70;99.90;;;;;;5076615;28;20020;-76
2023/12/21 03:49:31;;;;;;;2.67;2.60;;;2.80;99.90;;;;;;5078309;28;20029;-76
2023/12/21 03:52:00;;;;;;;8.75;8.45;;;2.80;99.90;;;;;;5078580;28;20033;-77
2023/12/21 03:54:26;;;;;;;8.05;7.68;;;2.80;99.90;;;;;;5076440;28;20127;-77
2023/12/21 03:56:52;;;;;;;64.95;61.75;;;2.90;99.90;;;;;;5077411;28;20055;-77
2023/12/21 03:59:18;;;;;;;5.20;5.00;;;2.90;99.90;;;;;;5076837;28;20052;-77
2023/12/21 04:01:43;;;;;;;0.20;0.20;;;3.00;99.90;;;;;;5076637;28;20032;-77
2023/12/21 04:04:09;;;;;;;19.15;18.27;;;3.00;99.90;;;;;;5060002;28;20089;-77
2023/12/21 04:06:35;;;;;;;1.20;1.17;;;3.00;99.90;;;;;;5071332;28;20009;-76
2023/12/21 04:09:02;;;;;;;4.43;4.22;;;2.90;99.90;;;;;;5056849;28;20061;-76
2023/12/21 04:11:28;;;;;;;1.38;1.30;;;2.90;99.90;;;;;;5056955;28;20036;-76
2023/12/21 04:13:54;;;;;;;3.97;3.80;;;2.90;99.90;;;;;;5040435;28;20048;-77
2023/12/21 04:16:20;;;;;;;0.17;0.17;;;2.90;99.90;;;;;;5058815;28;20021;-76
2023/12/21 04:18:46;;;;;;;1.65;1.55;;;2.90;99.90;;;;;;5040765;28;20020;-77
2023/12/21 04:21:12;;;;;;;17.95;17.15;;;2.90;99.90;;;;;;5040589;28;20145;-77
2023/12/21 04:23:37;;;;;;;5.05;4.75;;;2.90;99.90;;;;;;5057574;28;20096;-76
2023/12/21 04:26:03;;;;;;;40.13;13.18;;;3.00;99.90;;;;;;5057781;28;20020;-77
2023/12/21 04:28:34;;;;;;;9.05;8.15;;;2.90;99.90;;;;;;5040973;28;20052;-78
2023/12/21 04:31:12;;;;;;;0.10;0.10;;;2.90;99.90;;;;;;5060570;28;20036;-77
2023/12/21 04:33:39;;;;;;;1.77;1.77;;;;;;;;;;5055177;28;20040;-77
2023/12/21 04:36:08;;;;;;;2.38;2.28;;;2.80;99.90;;;;;;5054754;28;20037;-76
2023/12/21 04:38:34;;;;;;;21.88;20.40;;;2.60;99.90;;;;;;5059624;28;20017;-77
2023/12/21 04:41:03;;;;;;;0.40;0.40;;;2.60;99.90;;;;;;5056777;28;20095;-77
2023/12/21 04:43:29;;;;;;;0.10;0.10;;;2.60;99.90;;;;;;5062966;28;20060;-77
2023/12/21 04:45:58;;;;;;;0.10;0.10;;;2.60;99.90;;;;;;5044899;28;20079;-77
2023/12/21 04:48:30;;;;;;;0.17;0.17;;;2.60;99.90;;;;;;5056490;28;20089;-76
2023/12/21 04:51:00;;;;;;;0.20;0.20;;;2.60;99.90;;;;;;5056425;28;20029;-77
2023/12/21 04:53:26;;;;;;;3.05;2.75;;;2.60;99.90;;;;;;5021402;28;20072;-76
2023/12/21 04:55:52;;;;;;;0.10;0.10;;;2.60;99.90;;;;;;5058514;28;20025;-76
2023/12/21 04:58:22;;;;;;;7.88;7.43;;;2.60;99.90;;;;;;5055775;28;20017;-77
2023/12/21 05:00:51;;;;;;;0.10;0.10;;;2.50;99.90;;;;;;5039309;28;20032;-76
2023/12/21 05:03:22;;;;;;;0.85;0.85;;;2.60;99.90;;;;;;5055841;28;20089;-77
2023/12/21 05:05:56;;;;;;;0.20;0.20;;;2.50;99.90;;;;;;5053566;28;20029;-76
2023/12/21 05:08:31;;;;;;;0.10;0.10;;;2.50;99.90;;;;;;5057802;28;20035;-77
2023/12/21 05:11:07;;;;;;;0.10;0.10;;;2.50;99.90;;;;;;5041640;28;20124;-77
2023/12/21 05:13:34;;;;;;;0.10;0.10;;;2.40;99.90;;;;;;5053038;28;20028;-78
2023/12/21 05:16:05;;;;;;;0.13;0.13;;;2.50;99.90;;;;;;5055892;28;20025;-75
2023/12/21 05:18:31;;;;;;;0.40;0.40;;;2.50;99.90;;;;;;5049428;28;20053;-76
2023/12/21 05:21:04;;;;;;;0.08;0.08;;;2.50;99.90;;;;;;5058083;28;20633;-77
2023/12/21 05:23:34;;;;;;;0.00;0.00;;;-0.40;99.90;;;;;;5058569;28;20021;-77
2023/12/21 05:26:11;;;;;;;31.85;30.15;;;3.80;99.90;;;;;;5055839;28;20024;-76
2023/12/21 05:28:39;;;;;;;0.10;0.10;;;2.40;99.90;;;;;;5051982;28;20043;-76
2023/12/21 05:31:37;;;;;;;9.65;9.27;;;2.50;99.90;;;;;;5039068;28;20032;-76
2023/12/21 05:34:06;;;;;;;0.40;0.40;;;2.30;99.90;;;;;;5055537;28;20045;-78
2023/12/21 05:36:32;;;;;;;1.45;1.45;;;2.30;99.90;;;;;;5037860;28;20032;-77
2023/12/21 05:39:10;;;;;;;2.53;2.42;;;2.20;99.90;;;;;;5057955;28;20032;-76
2023/12/21 05:41:37;;;;;;;0.43;0.43;;;2.20;99.90;;;;;;5059344;28;20025;-77
2023/12/21 05:44:05;;;;;;;0.10;0.10;;;2.10;99.90;;;;;;5055600;28;20025;-76
2023/12/21 05:46:42;;;;;;;0.10;0.10;;;2.10;99.90;;;;;;5059899;28;20029;-77
2023/12/21 05:49:11;;;;;;;0.10;0.10;;;2.10;99.90;;;;;;5058825;28;20013;-77
2023/12/21 05:51:48;;;;;;;;;;;;;;;;;;;;;
2023/12/21 05:54:15;;;;;;;0.10;0.10;;;2.30;99.90;;;;;;5078493;22;20107;-76
2023/12/21 05:56:42;;;;;;;0.00;0.00;;;2.30;99.90;;;;;;5079565;28;20027;-77
2023/12/21 05:59:10;;;;;;;0.10;0.10;;;2.30;99.90;;;;;;5080103;28;20028;-76
2023/12/21 06:01:36;;;;;;;6.65;6.35;;;2.40;99.90;;;;;;5062936;28;20217;-76
2023/12/21 06:04:02;;;;;;;0.10;0.10;;;2.40;99.90;;;;;;5078328;28;20706;-75
2023/12/21 06:06:28;;;;;;;0.10;0.10;;;2.40;99.90;;;;;;5061112;28;20036;-76
2023/12/21 06:08:54;;;;;;;0.00;0.00;;;2.40;99.90;;;;;;5078602;28;20020;-76
2023/12/21 06:11:20;;;;;;;0.10;0.10;;;2.50;99.90;;;;;;5077667;28;20036;-77
2023/12/21 06:13:46;;;;;;;5.30;5.10;;;2.50;99.90;;;;;;5060726;28;20099;-76
2023/12/21 06:16:15;;;;;;;0.10;0.10;;;2.30;99.90;;;;;;5081920;28;20032;-76
2023/12/21 06:18:50;;;;;;;0.10;0.10;;;2.30;99.90;;;;;;5059837;28;20029;-77
2023/12/21 06:21:17;;;;;;;7.75;7.43;;;2.30;99.90;;;;;;5062992;28;20032;-76
2023/12/21 06:23:42;;;;;;;39.10;16.27;;;2.30;99.90;;;;;;5060389;28;20029;-76
2023/12/21 06:26:08;;;;;;;3.42;3.33;;;2.30;99.90;;;;;;5079452;28;20024;-76
2023/12/21 06:28:34;;;;;;;13.95;13.45;;;2.30;99.90;;;;;;5060366;28;20032;-77
2023/12/21 06:31:00;;;;;;;25.42;17.90;;;2.40;99.90;;;;;;5063140;28;20039;-76
2023/12/21 06:33:40;;;;;;;20.52;19.17;;;2.40;99.90;;;;;;5081020;28;20012;-76
2023/12/21 06:36:13;;;;;;;14.02;13.07;;;3.50;99.90;;;;;;5076717;28;20064;-76
2023/12/21 06:38:45;;;;;;;20.60;19.08;;;2.40;99.90;;;;;;5077385;28;20024;-76
2023/12/21 06:41:14;;;;;;;4.57;4.38;;;2.40;99.90;;;;;;5079741;28;20032;-77
2023/12/21 06:43:55;;;;;;;33.22;30.42;;;2.40;99.90;;;;;;5062163;28;20029;-76
2023/12/21 06:46:44;;;;;;;2.58;2.40;;;2.40;99.90;;;;;;5086343;28;20012;-75
2023/12/21 06:49:13;;;;;;;1.08;1.08;;;2.40;99.90;;;;;;5087157;28;20024;-76
2023/12/21 06:51:41;;;;;;;25.40;23.00;;;2.40;99.90;;;;;;5086159;28;20088;-77
2023/12/21 06:54:21;;;;;;;2.20;2.17;;;2.40;99.90;;;;;;5082567;28;20102;-77
2023/12/21 06:56:47;;;;;;;12.65;12.07;;;2.30;99.90;;;;;;5085292;28;20055;-78
2023/12/21 06:59:13;;;;;;;11.10;10.35;;;3.80;99.90;;;;;;5082674;28;20024;-78
2023/12/21 07:01:38;;;;;;;17.25;16.45;;;2.30;99.90;;;;;;5074424;28;20021;-80
2023/12/21 07:04:04;;;;;;;22.27;21.20;;;2.30;99.90;;;;;;5075693;28;20039;-76
2023/12/21 07:06:31;;;;;;;2.30;2.20;;;2.40;99.90;;;;;;5077374;28;20043;-77
2023/12/21 07:08:56;;;;;;;1.10;1.10;;;2.40;99.90;;;;;;5081153;28;20035;-77
2023/12/21 07:11:28;;;;;;;0.45;0.45;;;2.40;99.90;;;;;;5070094;28;20048;-77
2023/12/21 07:13:57;;;;;;;1.00;1.00;;;2.40;99.90;;;;;;5069834;28;20074;-77
2023/12/21 07:16:23;;;;;;;12.48;11.80;;;2.30;99.90;;;;;;5071195;28;20097;-78
2023/12/21 07:18:50;;;;;;;10.60;10.15;;;2.30;99.90;;;;;;5067787;28;20032;-78
2023/12/21 07:21:16;;;;;;;2.85;2.75;;;2.40;99.90;;;;;;5067425;28;20029;-78
2023/12/21 07:23:44;;;;;;;4.72;4.50;;;2.30;99.90;;;;;;5074052;28;20048;-78
2023/12/21 07:26:13;;;;;;;2.42;2.33;;;2.40;99.90;;;;;;5081419;28;20017;-78
2023/12/21 07:28:40;;;;;;;0.00;0.00;;;2.40;99.90;;;;;;5068199;28;20016;-77
2023/12/21 07:31:06;;;;;;;0.13;0.13;;;2.30;99.90;;;;;;5069725;28;20028;-78
2023/12/21 07:33:35;;;;;;;7.50;7.13;;;2.40;99.90;;;;;;5072798;28;20036;-77
2023/12/21 07:36:02;;;;;;;11.40;10.95;;;2.40;99.90;;;;;;5077344;28;20021;-77
2023/12/21 07:38:40;;;;;;;3.22;3.03;;;2.40;99.90;;;;;;5072859;28;20020;-79
2023/12/21 07:41:10;;;;;;;0.70;0.70;;;2.50;99.90;;;;;;5073352;28;20078;-78
2023/12/21 07:43:38;;;;;;;19.85;11.20;;;2.50;99.90;;;;;;5063792;28;20055;-78
2023/12/21 07:46:04;;;;;;;0.22;0.22;;;2.60;99.90;;;;;;5063933;28;20028;-77
2023/12/21 07:48:33;;;;;;;12.80;11.65;;;2.60;99.90;;;;;;5069715;28;20025;-78
2023/12/21 07:50:59;;;;;;;10.73;10.25;;;2.10;99.90;;;;;;5067866;28;20059;-78
2023/12/21 07:53:25;;;;;;;3.33;3.22;;;2.80;99.90;;;;;;5075073;28;20700;-77
2023/12/21 07:55:50;;;;;;;37.50;34.92;;;2.80;99.90;;;;;;5069810;28;20028;-82
2023/12/21 07:58:16;;;;;;;21.88;20.90;;;2.80;99.90;;;;;;5071728;28;20086;-77
2023/12/21 08:00:42;;;;;;;15.18;14.55;;;2.80;99.90;;;;;;5071909;28;20032;-77
2023/12/21 08:03:08;;;;;;;8.35;7.93;;;2.90;99.90;;;;;;5070204;28;20032;-77
2023/12/21 08:05:34;;;;;;;6.15;5.85;;;2.90;99.90;;;;;;5065212;28;20090;-77
2023/12/21 08:07:59;;;;;;;4.03;3.83;;;3.00;99.90;;;;;;5078311;28;20555;-77
2023/12/21 08:10:25;;;;;;;32.65;30.77;;;3.00;99.90;;;;;;5077961;28;20040;-77
2023/12/21 08:12:51;;;;;;;5.07;4.65;;;3.10;99.90;;;;;;5076739;28;20035;-81
2023/12/21 08:15:17;;;;;;;4.63;4.43;;;3.20;99.90;;;;;;5063517;28;20033;-76
2023/12/21 08:17:44;;;;;;;4.78;4.60;;;3.20;99.90;;;;;;5062020;28;20512;-76
2023/12/21 08:20:12;;;;;;;1.08;1.08;;;3.30;99.90;;;;;;5061751;28;20284;-76
2023/12/21 08:22:38;;;;;;;45.95;30.95;;;3.50;99.90;;;;;;5062792;28;20107;-77
2023/12/21 08:25:04;;;;;;;46.40;41.72;;;3.80;99.90;;;;;;5064971;28;20071;-76
2023/12/21 08:27:30;;;;;;;10.20;9.50;;;3.90;99.90;;;;;;5073261;28;20029;-80
2023/12/21 08:29:55;;;;;;;1.48;1.42;;;4.00;99.90;;;;;;5073339;28;20032;-77
2023/12/21 08:32:21;;;;;;;34.50;29.02;;;4.10;99.90;;;;;;5062791;28;20692;-78
2023/12/21 08:34:47;;;;;;;15.70;11.05;;;4.00;99.90;;;;;;5061045;28;20040;-77
2023/12/21 08:37:13;;;;;;;25.75;24.33;;;3.90;99.90;;;;;;5063486;28;20115;-82
2023/12/21 08:39:39;;;;;;;14.60;13.60;;;3.90;99.90;;;;;;5064174;28;20115;-79
2023/12/21 08:42:10;;;;;;;0.38;0.38;;;3.80;99.90;;;;;;5066333;28;20021;-79
2023/12/21 08:44:37;;;;;;;13.13;12.50;;;3.90;99.90;;;;;;5071518;28;20027;-78
2023/12/21 08:47:10;;;;;;;5.05;4.85;;;4.10;99.90;;;;;;5073254;28;20017;-79
2023/12/21 08:49:36;;;;;;;5.28;5.05;;;3.30;99.90;;;;;;5073589;28;20027;-79
2023/12/21 08:52:03;;;;;;;3.42;3.28;;;4.40;99.90;;;;;;5069565;28;20037;-79
2023/12/21 08:54:37;;;;;;;6.38;6.18;;;4.60;99.90;;;;;;5063181;28;20700;-79
2023/12/21 08:57:05;;;;;;;1.85;1.75;;;4.70;99.90;;;;;;5061136;28;20052;-79
2023/12/21 08:59:40;;;;;;;0.10;0.10;;;4.80;99.90;;;;;;5063651;28;20346;-79
2023/12/21 09:02:08;;;;;;;14.98;14.38;;;5.00;99.90;;;;;;5062699;28;20576;-78
2023/12/21 09:04:37;;;;;;;2.28;2.00;;;4.10;99.90;;;;;;5071738;28;20024;-78
2023/12/21 09:07:24;;;;;;;0.70;0.70;;;5.30;99.90;;;;;;5076040;28;20037;-77
2023/12/21 09:10:06;;;;;;;0.30;0.30;;;6.50;99.90;;;;;;5069580;28;20111;-78
2023/12/21 09:12:35;;;;;;;0.20;0.20;;;5.40;99.90;;;;;;5071150;28;20025;-79
2023/12/21 09:15:06;;;;;;;2.42;2.33;;;5.80;99.90;;;;;;5066947;28;20089;-77
2023/12/21 09:17:38;;;;;;;0.10;0.10;;;7.50;99.90;;;;;;5072592;28;20036;-77
2023/12/21 09:20:08;;;;;;;3.92;3.72;;;7.50;99.90;;;;;;5072663;28;20024;-78
2023/12/21 09:22:34;;;;;;;14.70;12.25;;;7.50;99.90;;;;;;5065619;28;20075;-77
2023/12/21 09:25:03;;;;;;;14.63;13.07;;;7.30;99.90;;;;;;5068314;28;20078;-81
2023/12/21 09:27:32;;;;;;;0.47;0.47;;;7.40;99.90;;;;;;5075263;28;20029;-80
2023/12/21 09:30:05;;;;;;;0.30;0.30;;;7.30;99.90;;;;;;5073064;28;20269;-77
2023/12/21 09:32:32;;;;;;;;;;;8.20;99.90;;;;;;5074654;28;20075;-77
2023/12/21 09:35:02;;;;;;;2.42;2.22;;;6.90;99.90;;;;;;5067297;28;19916;-77
2023/12/21 09:37:28;;;;;;;0.20;0.20;;;7.30;99.90;;;;;;5066184;28;20170;-77
2023/12/21 09:39:57;;;;;;;0.20;0.20;;;7.30;99.90;;;;;;5060450;28;20025;-77
2023/12/21 09:42:26;;;;;;;2.45;2.35;;;7.40;99.90;;;;;;5049795;28;20017;-77
2023/12/21 09:44:56;;;;;;;0.20;0.20;;;7.40;99.90;;;;;;5053759;28;20655;-77
2023/12/21 09:47:23;;;;;;;0.20;0.20;;;7.40;99.90;;;;;;5060816;28;20666;-77
2023/12/21 09:49:51;;;;;;;0.20;0.20;;;7.50;99.90;;;;;;5048216;28;20033;-77
2023/12/21 09:52:21;;;;;;;3.63;3.50;;;7.60;99.90;;;;;;5061392;28;20041;-77
2023/12/21 09:54:50;;;;;;;0.40;0.40;;;7.60;99.90;;;;;;5058973;28;20660;-77
2023/12/21 09:57:21;;;;;;;2.85;2.75;;;7.90;99.90;;;;;;5047800;28;20017;-77
2023/12/21 09:59:51;;;;;;;1.23;1.20;;;8.10;99.90;;;;;;5044221;28;20702;-77
2023/12/21 10:02:37;;;;;;;0.10;0.10;;;8.30;99.90;;;;;;5046559;28;20052;-77
2023/12/21 10:05:03;;;;;;;0.20;0.20;;;8.40;99.90;;;;;;5048645;28;20053;-77
2023/12/21 10:07:30;;;;;;;0.20;0.20;;;7.80;99.90;;;;;;5045354;28;20104;-77
2023/12/21 10:09:58;;;;;;;0.20;0.20;;;8.70;99.90;;;;;;5055750;28;20047;-77
2023/12/21 10:12:24;;;;;;;0.10;0.10;;;8.80;99.90;;;;;;5060737;28;20057;-76
2023/12/21 10:15:01;;;;;;;0.63;0.63;;;8.90;99.90;;;;;;5075731;28;20028;-78
2023/12/21 10:17:27;;;;;;;0.40;0.40;;;9.00;99.90;;;;;;5063585;28;20017;-79
2023/12/21 10:20:00;;;;;;;0.28;0.28;;;9.10;99.90;;;;;;5065489;28;20670;-77
2023/12/21 10:22:27;;;;;;;0.10;0.10;;;7.70;99.90;;;;;;5066755;28;20029;-78
2023/12/21 10:24:54;;;;;;;1.02;1.02;;;9.20;99.90;;;;;;5070041;28;20032;-77
2023/12/21 10:27:22;;;;;;;29.27;26.83;;;9.30;99.90;;;;;;5064096;28;20024;-77
2023/12/21 10:29:55;;;;;;;8.35;7.85;;;9.20;99.90;;;;;;5069174;28;20113;-77
2023/12/21 10:32:22;;;;;;;;;;;9.30;99.90;;;;;;5074097;28;20166;-77
2023/12/21 10:34:49;;;;;;;0.30;0.30;;;9.30;99.90;;;;;;5070150;28;19920;-76
2023/12/21 10:37:17;;;;;;;10.80;10.30;;;6.50;99.90;;;;;;5068916;28;20028;-76
2023/12/21 10:39:44;;;;;;;11.43;10.50;;;9.30;99.90;;;;;;5071285;28;20039;-76
2023/12/21 10:42:14;;;;;;;18.30;10.23;;;9.40;99.90;;;;;;5070822;28;20012;-77
2023/12/21 10:44:47;;;;;;;3.28;3.13;;;9.60;99.90;;;;;;5065493;28;20031;-76
2023/12/21 10:47:16;;;;;;;2.17;2.08;;;9.60;99.90;;;;;;5066502;28;20032;-77
2023/12/21 10:49:44;;;;;;;8.77;8.30;;;9.60;99.90;;;;;;5068971;28;20039;-77
2023/12/21 10:52:11;;;;;;;23.02;21.60;;;9.60;99.90;;;;;;5065962;28;20020;-77
2023/12/21 10:54:42;;;;;;;12.27;11.50;;;9.70;99.90;;;;;;5065265;28;20039;-77
2023/12/21 10:57:09;;;;;;;1.52;1.52;;;9.80;99.90;;;;;;5068673;28;20013;-77
2023/12/21 10:59:35;;;;;;;11.23;10.70;;;9.80;99.90;;;;;;5062949;28;20032;-77
2023/12/21 11:02:04;;;;;;;9.82;9.27;;;8.40;99.90;;;;;;5064893;28;20517;-79
2023/12/21 11:04:44;;;;;;;10.70;10.10;;;9.90;99.90;;;;;;5087605;28;20020;-78
2023/12/21 11:07:25;;;;;;;1.23;1.20;;;10.00;99.90;;;;;;5063613;28;20029;-79
2023/12/21 11:10:08;;;;;;;9.43;8.93;;;10.10;99.90;;;;;;5060965;28;20717;-78
2023/12/21 11:12:34;;;;;;;10.65;10.02;;;10.10;99.90;;;;;;5062501;28;20055;-79
2023/12/21 11:15:08;;;;;;;4.65;4.43;;;10.10;99.90;;;;;;5060733;28;20032;-79
2023/12/21 11:17:37;;;;;;;6.47;5.55;;;10.30;99.90;;;;;;5062407;28;20021;-78
2023/12/21 11:20:39;;;;;;;6.57;6.15;;;10.50;99.90;;;;;;5082089;28;20059;-84
2023/12/21 11:23:06;;;;;;;2.70;2.60;;;10.70;99.90;;;;;;5051566;28;20021;-81
2023/12/21 11:25:41;;;;;;;8.15;7.38;;;11.20;99.90;;;;;;5069498;28;20025;-79
2023/12/21 11:28:11;;;;;;;6.63;6.25;;;10.60;99.90;;;;;;5070923;28;20580;-79
2023/12/21 11:30:47;;;;;;;31.58;28.10;;;10.90;99.90;;;;;;5062180;28;20066;-80
2023/12/21 11:33:30;;;;;;;8.80;8.13;;;12.00;99.90;;;;;;5059833;28;20098;-80
2023/12/21 11:36:39;;;;;;;3.95;3.75;;;10.70;99.90;;;;;;5067972;28;20690;-80
2023/12/21 11:39:51;;;;;;;1.92;1.85;;;10.90;99.90;;;;;;5065730;28;20016;-79
2023/12/21 11:42:45;;;;;;;5.95;5.68;;;11.10;99.90;;;;;;5067796;28;20621;-81
2023/12/21 11:47:44;;;;;;;0.35;0.35;;;11.30;99.90;;;;;;5069339;23;19932;-79
2023/12/21 11:50:12;;;;;;;9.48;8.50;;;11.50;99.90;;;;;;5061890;28;20075;-79
2023/12/21 11:52:38;;;;;;;5.82;5.55;;;10.70;99.70;;;;;;5060479;28;20091;-76
2023/12/21 11:55:04;;;;;;;11.90;11.18;;;11.50;99.90;;;;;;5063002;28;20029;-76
2023/12/21 11:57:32;;;;;;;2.00;1.92;;;11.70;99.60;;;;;;5063846;28;20020;-78
2023/12/21 12:00:22;;;;;;;1.17;1.15;;;11.70;98.30;;;;;;5061061;28;20019;-78
2023/12/21 12:02:50;;;;;;;6.22;5.60;;;12.00;98.00;;;;;;5063024;28;20120;-76
2023/12/21 12:05:28;;;;;;;0.82;0.82;;;11.60;97.80;;;;;;5058958;28;20108;-79
2023/12/21 12:07:54;;;;;;;7.40;6.88;;;11.70;97.20;;;;;;5099090;23;20049;-74
2023/12/21 12:10:26;;;;;;;1.95;1.85;;;11.80;97.70;;;;;;5043789;28;20036;-82
2023/12/21 12:12:52;;;;;;;2.63;2.47;;;11.80;98.00;;;;;;5044190;28;20115;-76
2023/12/21 12:15:19;;;;;;;2.85;2.75;;;11.90;98.10;;;;;;5059595;28;20108;-79
2023/12/21 12:17:47;;;;;;;2.13;2.03;;;12.10;99.90;;;;;;5040923;28;20037;-83
2023/12/21 12:20:25;;;;;;;2.72;2.63;;;12.10;99.30;;;;;;5059311;28;20020;-79
2023/12/21 12:22:52;;;;;;;37.08;22.35;;;13.70;99.80;;;;;;5074462;22;20108;-82
2023/12/21 12:25:18;;;;;;;4.57;4.32;;;11.80;99.90;;;;;;5087926;28;20051;-78
2023/12/21 12:27:56;;;;;;;3.20;3.00;;;11.40;99.90;;;;;;5088140;28;20024;-77
2023/12/21 12:32:49;;;;;;;2.40;2.30;;;11.50;99.90;;;;;;5078378;22;20040;-79
2023/12/21 12:35:28;;;;;;;4.65;4.43;;;11.50;99.90;;;;;;5062496;28;20039;-78
2023/12/21 12:38:03;;;;;;;11.65;11.00;;;11.60;99.90;;;;;;5063320;28;20017;-78
2023/12/21 12:40:35;;;;;;;2.28;2.15;;;11.80;99.90;;;;;;5065295;28;20020;-78
2023/12/21 12:43:02;;;;;;;4.72;4.43;;;12.60;99.90;;;;;;5064089;28;20012;-78
2023/12/21 12:45:41;;;;;;;3.65;3.47;;;11.80;99.90;;;;;;5061940;28;20162;-78
2023/12/21 12:48:18;;;;;;;2.20;2.10;;;11.90;99.90;;;;;;5062875;28;20012;-78
2023/12/21 12:50:46;;;;;;;7.18;3.17;;;11.90;99.70;;;;;;5066460;28;20775;-78
2023/12/21 12:53:25;;;;;;;3.03;2.85;;;11.90;99.60;;;;;;5069134;28;20157;-77
2023/12/21 12:56:00;;;;;;;10.52;9.73;;;12.00;99.90;;;;;;5064354;28;20039;-84
2023/12/21 12:58:34;;;;;;;4.72;4.53;;;11.90;99.90;;;;;;5062494;28;20036;-82
2023/12/21 13:01:03;;;;;;;;;;;12.00;99.40;;;;;;5060939;28;20020;-78
2023/12/21 13:03:31;;;;;;;0.30;0.30;;;11.90;99.00;;;;;;5063988;28;20008;-81
2023/12/21 13:06:01;;;;;;;2.00;1.90;;;11.70;97.80;;;;;;5066328;28;20106;-78
2023/12/21 13:08:28;;;;;;;6.40;6.05;;;11.60;98.70;;;;;;5067379;28;20032;-81
2023/12/21 13:10:54;;;;;;;2.05;1.95;;;11.60;99.00;;;;;;5063535;28;20013;-76